Time;durP1;ratioP1;P1;durP2;ratioP2;P2;SDS_P1;SDS_P2;PMS_P1;PMS_P2;Temp;Humidity;BMP_temperature;BMP_pressure;BME280_temperature;BME280_humidity;BME280_pressure;Samples;Min_cycle;Max_cycle;Signal;HPM_P1;HPM_P2
2023/05/18 00:00:34;;;;;;;;;;;;;;;-144.99;79.50;52340.06;5049533;28;19928;-66
2023/05/18 00:03:00;;;;;;;;;;;;;;;-144.99;79.54;52374.72;5035284;28;20416;-65
2023/05/18 00:05:32;;;;;;;;;;;;;;;-144.99;79.67;52323.75;5041481;28;20365;-65
2023/05/18 00:07:59;;;;;;;;;;;;;;;-144.99;79.77;52338.03;5050576;28;20014;-65
2023/05/18 00:10:26;;;;;;;;;;;;;;;-144.99;79.88;52356.38;5043601;28;19925;-66
2023/05/18 00:12:53;;;;;;;;;;;;;;;-144.99;79.89;52354.34;5037764;28;19933;-66
2023/05/18 00:15:19;;;;;;;;;;;;;;;-144.99;79.79;52354.34;5055859;28;19932;-65
2023/05/18 00:17:52;;;;;;;;;;;;;;;-144.99;80.08;52305.41;5048191;28;19924;-65
2023/05/18 00:20:20;;;;;;;;;;;;;;;-144.99;80.09;52344.16;5034732;28;19925;-65
2023/05/18 00:22:49;;;;;;;;;;;;;;;-144.99;80.01;52313.56;5040546;28;19986;-66
2023/05/18 00:25:16;;;;;;;;;;;;;;;-144.99;80.02;52344.16;5049751;28;19924;-66
2023/05/18 00:27:42;;;;;;;;;;;;;;;-144.99;80.19;52329.88;5041821;28;19932;-66
2023/05/18 00:30:09;;;;;;;;;;;;;;;-144.99;80.29;52295.22;5034250;22;20076;-69
2023/05/18 00:32:36;;;;;;;;;;;;;;;-144.99;80.37;52378.78;5011017;28;19925;-69
2023/05/18 00:35:04;;;;;;;;;;;;;;;-144.99;80.60;52307.47;5010182;28;20005;-69
2023/05/18 00:37:31;;;;;;;;;;;;;;;-144.99;80.61;52356.38;5007026;28;20382;-68
2023/05/18 00:39:57;;;;;;;;;;;;;;;-144.99;80.73;52391.03;5009822;28;20370;-70
2023/05/18 00:42:24;;;;;;;;;;;;;;;-144.99;80.75;52313.56;5007721;28;20000;-69
2023/05/18 00:44:51;;;;;;;;;;;;;;;-144.99;81.05;52362.50;5002556;28;19925;-69
2023/05/18 00:47:20;;;;;;;;;;;;;;;-144.99;81.17;52391.03;5001374;28;19929;-69
2023/05/18 00:49:47;;;;;;;;;;;;;;;-144.99;81.33;52360.44;5003986;28;19952;-69
2023/05/18 00:52:15;;;;;;;;;;;;;;;-144.99;81.41;52333.94;5009895;28;19937;-69
2023/05/18 00:54:42;;;;;;;;;;;;;;;-144.99;81.59;52356.38;5010666;28;19925;-70
2023/05/18 00:57:09;;;;;;;;;;;;;;;-144.99;81.64;52325.81;5010299;28;19933;-70
2023/05/18 00:59:35;;;;;;;;;;;;;;;-144.99;81.61;52333.94;5012711;28;19936;-71
2023/05/18 01:02:03;;;;;;;;;;;;;;;-144.99;81.77;52313.56;5020231;28;19961;-70
2023/05/18 01:04:30;;;;;;;;;;;;;;;-144.99;81.88;52311.53;5019721;28;19925;-71
2023/05/18 01:07:05;;;;;;;;;;;;;;;-144.99;81.93;52344.16;5009705;28;19934;-70
2023/05/18 01:09:33;;;;;;;;;;;;;;;-144.99;81.88;52323.75;5026134;28;19972;-70
2023/05/18 01:12:04;;;;;;;;;;;;;;;-144.99;81.88;52333.94;5004050;28;19987;-70
2023/05/18 01:14:34;;;;;;;;;;;;;;;-144.99;81.79;52291.16;5008193;28;19956;-71
2023/05/18 01:17:05;;;;;;;;;;;;;;;-144.99;81.63;52333.94;5010422;28;19925;-70
2023/05/18 01:19:50;;;;;;;;;;;;;;;-144.99;81.72;52348.22;5010264;28;19926;-70
2023/05/18 01:22:25;;;;;;;;;;;;;;;-144.99;81.81;52342.09;4998552;28;19944;-70
2023/05/18 01:24:58;;;;;;;;;;;;;;;-144.99;82.92;52354.34;5006130;28;19930;-72
2023/05/18 01:27:26;;;;;;;;;;;;;;;-144.99;83.62;52344.16;5010755;28;19925;-70
2023/05/18 01:29:55;;;;;;;;;;;;;;;-144.99;84.10;52336.00;5000867;28;19937;-71
2023/05/18 01:32:22;;;;;;;;;;;;;;;-144.99;84.04;52350.25;5001954;28;19966;-72
2023/05/18 01:34:49;;;;;;;;;;;;;;;-144.99;84.13;52356.38;5032103;28;19929;-73
2023/05/18 01:37:15;;;;;;;;;;;;;;;-144.99;83.86;52305.41;5034795;28;19918;-74
2023/05/18 01:39:42;;;;;;;;;;;;;;;-144.99;83.59;52333.94;5034753;28;19923;-73
2023/05/18 01:42:13;;;;;;;;;;;;;;;-144.99;83.26;52331.91;5028106;28;19953;-72
2023/05/18 01:44:43;;;;;;;;;;;;;;;-144.99;81.90;52342.09;5031395;28;19968;-72
2023/05/18 01:47:12;;;;;;;;;;;;;;;-144.99;82.36;52329.88;5011639;28;20397;-69
2023/05/18 01:49:42;;;;;;;;;;;;;;;-144.99;83.80;52338.03;5017420;28;19930;-68
2023/05/18 01:52:10;;;;;;;;;;;;;;;-144.99;84.06;52317.66;5008864;28;19929;-69
2023/05/18 01:54:38;;;;;;;;;;;;;;;-144.99;82.99;52293.19;5012702;28;19926;-69
2023/05/18 01:57:06;;;;;;;;;;;;;;;-144.99;82.51;52362.50;5016639;28;19925;-69
2023/05/18 01:59:33;;;;;;;;;;;;;;;-144.99;83.05;52350.25;5016082;28;19936;-69
2023/05/18 02:02:01;;;;;;;;;;;;;;;-144.99;83.91;52329.88;5013072;28;19926;-68
2023/05/18 02:04:28;;;;;;;;;;;;;;;-144.99;83.78;52340.06;5004847;28;19925;-69
2023/05/18 02:06:55;;;;;;;;;;;;;;;-144.99;83.75;52342.09;5010626;28;19932;-68
2023/05/18 02:09:21;;;;;;;;;;;;;;;-144.99;83.52;52368.59;5006154;28;20368;-71
2023/05/18 02:11:48;;;;;;;;;;;;;;;-144.99;83.62;52350.25;5009249;28;19926;-69
2023/05/18 02:14:15;;;;;;;;;;;;;;;-144.99;83.46;52362.50;5012848;28;19937;-68
2023/05/18 02:16:46;;;;;;;;;;;;;;;-144.99;83.50;52368.59;5017111;28;19947;-69
2023/05/18 02:19:14;;;;;;;;;;;;;;;-144.99;83.69;52366.56;5002463;28;20025;-69
2023/05/18 02:21:42;;;;;;;;;;;;;;;-144.99;83.53;52362.50;5007032;28;19932;-72
2023/05/18 02:24:08;;;;;;;;;;;;;;;-144.99;83.54;52362.50;5013539;28;19989;-72
2023/05/18 02:26:36;;;;;;;;;;;;;;;-144.99;83.54;52329.88;5019668;28;19926;-72
2023/05/18 02:29:03;;;;;;;;;;;;;;;-144.99;83.44;52338.03;5025062;28;19933;-72
2023/05/18 02:31:30;;;;;;;;;;;;;;;-144.99;83.32;52331.91;5014478;28;19932;-69
2023/05/18 02:33:57;;;;;;;;;;;;;;;-144.99;83.34;52358.41;5015401;28;19929;-69
2023/05/18 02:36:25;;;;;;;;;;;;;;;-144.99;83.24;52342.09;5008789;28;19926;-69
2023/05/18 02:38:52;;;;;;;;;;;;;;;-144.99;82.98;52344.16;5011158;28;19930;-69
2023/05/18 02:41:18;;;;;;;;;;;;;;;-144.99;82.04;52348.22;5007837;28;20386;-69
2023/05/18 02:43:45;;;;;;;;;;;;;;;-144.99;82.71;52338.03;5003731;28;19937;-69
2023/05/18 02:46:11;;;;;;;;;;;;;;;-144.99;82.62;52344.16;5006696;28;20405;-69
2023/05/18 02:48:38;;;;;;;;;;;;;;;-144.99;82.20;52338.03;5013540;28;19936;-69
2023/05/18 02:51:05;;;;;;;;;;;;;;;-144.99;81.36;52272.81;4999352;28;19965;-69
2023/05/18 02:53:33;;;;;;;;;;;;;;;-144.99;80.89;52317.66;5009300;28;19933;-72
2023/05/18 02:56:02;;;;;;;;;;;;;;;-144.99;80.77;52305.41;5012396;28;19929;-69
2023/05/18 02:58:28;;;;;;;;;;;;;;;-144.99;80.57;52329.88;5013594;28;19926;-68
2023/05/18 03:00:55;;;;;;;;;;;;;;;-144.99;80.41;52280.97;5019178;28;19926;-71
2023/05/18 03:03:24;;;;;;;;;;;;;;;-144.99;80.44;52350.25;5017610;28;20203;-71
2023/05/18 03:05:52;;;;;;;;;;;;;;;-144.99;80.73;52309.50;5030750;28;19937;-71
2023/05/18 03:08:19;;;;;;;;;;;;;;;-144.99;80.63;52352.28;5030440;28;19925;-70
2023/05/18 03:10:47;;;;;;;;;;;;;;;-144.99;80.61;52368.59;5021815;28;19934;-69
2023/05/18 03:13:13;;;;;;;;;;;;;;;-144.99;80.55;52327.84;5020835;28;19940;-71
2023/05/18 03:15:40;;;;;;;;;;;;;;;-144.99;80.55;52309.50;5026495;28;19936;-70
2023/05/18 03:18:10;;;;;;;;;;;;;;;-144.99;80.64;52378.78;5027776;28;19926;-68
2023/05/18 03:20:37;;;;;;;;;;;;;;;-144.99;80.85;52309.50;5021571;28;20346;-69
2023/05/18 03:23:04;;;;;;;;;;;;;;;-144.99;81.21;52354.34;5024227;28;19926;-69
2023/05/18 03:25:31;;;;;;;;;;;;;;;-144.99;80.91;52321.72;5024048;28;19925;-68
2023/05/18 03:27:59;;;;;;;;;;;;;;;-144.99;80.76;52321.72;5025883;28;19926;-71
2023/05/18 03:30:26;;;;;;;;;;;;;;;-144.99;80.82;52325.81;5022429;28;19925;-72
2023/05/18 03:32:53;;;;;;;;;;;;;;;-144.99;81.86;52317.66;5029684;28;20207;-71
2023/05/18 03:35:19;;;;;;;;;;;;;;;-144.99;81.04;52333.94;5022716;28;20291;-71
2023/05/18 03:37:46;;;;;;;;;;;;;;;-144.99;80.94;52305.41;5019277;28;19972;-70
2023/05/18 03:40:14;;;;;;;;;;;;;;;-144.99;80.85;52329.88;5015953;28;19969;-71
2023/05/18 03:42:43;;;;;;;;;;;;;;;-144.99;80.96;52309.50;5011955;28;19981;-71
2023/05/18 03:45:12;;;;;;;;;;;;;;;-144.99;80.83;52329.88;5005642;28;19925;-67
2023/05/18 03:47:39;;;;;;;;;;;;;;;-144.99;80.89;52370.63;5008140;28;20294;-67
2023/05/18 03:50:06;;;;;;;;;;;;;;;-144.99;80.84;52354.34;5014458;28;19929;-70
2023/05/18 03:52:33;;;;;;;;;;;;;;;-144.99;80.80;52338.03;5000631;28;19953;-71
2023/05/18 03:55:00;;;;;;;;;;;;;;;-144.99;80.60;52301.34;5002924;28;19948;-70
2023/05/18 03:57:27;;;;;;;;;;;;;;;-144.99;80.57;52315.59;5005621;28;19925;-71
2023/05/18 03:59:54;;;;;;;;;;;;;;;-144.99;80.21;52309.50;5004729;28;19929;-70
2023/05/18 04:02:22;;;;;;;;;;;;;;;-144.99;80.25;52327.84;5023282;28;20337;-70
2023/05/18 04:04:48;;;;;;;;;;;;;;;-144.99;80.17;52342.09;5021347;28;19929;-70
2023/05/18 04:07:16;;;;;;;;;;;;;;;-144.99;80.21;52342.09;5013682;28;19945;-70
2023/05/18 04:09:43;;;;;;;;;;;;;;;-144.99;80.02;52313.56;5007898;28;20008;-70
2023/05/18 04:12:09;;;;;;;;;;;;;;;-144.99;79.65;52325.81;5009635;28;19932;-71
2023/05/18 04:14:36;;;;;;;;;;;;;;;-144.99;79.51;52333.94;5007411;28;19937;-72
2023/05/18 04:17:03;;;;;;;;;;;;;;;-144.99;79.54;52297.25;5010840;28;19940;-71
2023/05/18 04:19:32;;;;;;;;;;;;;;;-144.99;79.46;52364.53;5003681;28;19926;-71
2023/05/18 04:21:59;;;;;;;;;;;;;;;-144.99;79.44;52317.66;5011287;28;19988;-72
2023/05/18 04:24:26;;;;;;;;;;;;;;;-144.99;79.38;52333.94;5016091;28;19925;-71
2023/05/18 04:26:53;;;;;;;;;;;;;;;-144.99;79.42;52297.25;5025672;28;19930;-72
2023/05/18 04:29:20;;;;;;;;;;;;;;;-144.99;79.31;52319.69;5016315;28;19926;-73
2023/05/18 04:31:47;;;;;;;;;;;;;;;-144.99;79.01;52333.94;5017247;28;19933;-72
2023/05/18 04:34:16;;;;;;;;;;;;;;;-144.99;78.79;52321.72;5009410;28;20258;-72
2023/05/18 04:36:45;;;;;;;;;;;;;;;-144.99;78.45;52325.81;5010678;28;19925;-73
2023/05/18 04:39:12;;;;;;;;;;;;;;;-144.99;78.50;52305.41;5014875;28;20287;-73
2023/05/18 04:41:40;;;;;;;;;;;;;;;-144.99;78.27;52313.56;5006318;28;19926;-73
2023/05/18 04:44:08;;;;;;;;;;;;;;;-144.99;78.34;52307.47;5002744;28;20219;-68
2023/05/18 04:46:38;;;;;;;;;;;;;;;-144.99;78.25;52317.66;4999339;28;19930;-67
2023/05/18 04:49:05;;;;;;;;;;;;;;;-144.99;78.08;52283.00;5004443;28;19965;-71
2023/05/18 04:51:33;;;;;;;;;;;;;;;-144.99;78.11;52338.03;5017415;28;19980;-71
2023/05/18 04:54:01;;;;;;;;;;;;;;;-144.99;77.93;52325.81;5011686;28;19926;-68
2023/05/18 04:56:28;;;;;;;;;;;;;;;-144.99;77.84;52323.75;5011452;28;19941;-68
2023/05/18 04:58:58;;;;;;;;;;;;;;;-144.99;78.66;52291.16;5005746;28;19925;-67
2023/05/18 05:01:24;;;;;;;;;;;;;;;-144.99;77.85;52301.34;5006060;28;19968;-70
2023/05/18 05:03:51;;;;;;;;;;;;;;;-144.99;77.67;52287.06;5010607;28;19976;-68
2023/05/18 05:06:18;;;;;;;;;;;;;;;-144.99;77.44;52311.53;5005541;28;19934;-68
2023/05/18 05:08:44;;;;;;;;;;;;;;;-144.99;77.33;52301.34;5009133;28;19929;-69
2023/05/18 05:11:12;;;;;;;;;;;;;;;-144.99;76.97;52289.13;5005428;28;19957;-69
2023/05/18 05:13:39;;;;;;;;;;;;;;;-144.99;76.00;52301.34;5003101;28;19929;-69
2023/05/18 05:16:06;;;;;;;;;;;;;;;-144.99;75.35;52287.06;5010364;28;20020;-69
2023/05/18 05:18:33;;;;;;;;;;;;;;;-144.99;75.40;52344.16;4996466;28;19925;-68
2023/05/18 05:20:59;;;;;;;;;;;;;;;-144.99;75.01;52280.97;5002262;28;19932;-66
2023/05/18 05:23:26;;;;;;;;;;;;;;;-144.99;74.57;52313.56;5004595;28;20028;-67
2023/05/18 05:25:52;;;;;;;;;;;;;;;-144.99;74.48;52309.50;5010406;28;19929;-67
2023/05/18 05:28:20;;;;;;;;;;;;;;;-144.99;74.45;52301.34;5002446;28;20001;-67
2023/05/18 05:30:47;;;;;;;;;;;;;;;-144.99;73.93;52276.88;5010724;28;20347;-70
2023/05/18 05:33:14;;;;;;;;;;;;;;;-144.99;73.72;52301.34;5007341;28;19929;-69
2023/05/18 05:35:40;;;;;;;;;;;;;;;-144.99;73.88;52289.13;5011556;28;19933;-69
2023/05/18 05:38:07;;;;;;;;;;;;;;;-144.99;73.76;52325.81;5009112;28;19997;-70
2023/05/18 05:40:34;;;;;;;;;;;;;;;-144.99;73.47;52338.03;5027698;28;19996;-71
2023/05/18 05:43:01;;;;;;;;;;;;;;;-144.99;73.40;52317.66;5016383;28;20024;-69
2023/05/18 05:45:29;;;;;;;;;;;;;;;-144.99;73.47;52319.69;5015381;28;20460;-68
2023/05/18 05:47:55;;;;;;;;;;;;;;;-144.99;73.52;52313.56;5014946;28;19984;-72
2023/05/18 05:50:22;;;;;;;;;;;;;;;-144.99;74.45;52289.13;5021227;28;19926;-73
2023/05/18 05:52:49;;;;;;;;;;;;;;;-144.99;74.89;52313.56;5013843;28;19936;-72
2023/05/18 05:55:16;;;;;;;;;;;;;;;-144.99;74.96;52280.97;5011124;28;20007;-69
2023/05/18 05:57:42;;;;;;;;;;;;;;;-144.99;75.21;52342.09;5005732;28;20045;-68
2023/05/18 06:00:10;;;;;;;;;;;;;;;-144.99;75.29;52307.47;5006409;28;19969;-68
2023/05/18 06:02:38;;;;;;;;;;;;;;;-144.99;75.21;52301.34;5006492;28;20127;-68
2023/05/18 06:05:06;;;;;;;;;;;;;;;-144.99;74.80;52305.41;5013617;28;19925;-68
2023/05/18 06:07:32;;;;;;;;;;;;;;;-144.99;74.70;52366.56;5010600;28;19993;-68
2023/05/18 06:09:59;;;;;;;;;;;;;;;-144.99;74.36;52295.22;5009680;28;19936;-68
2023/05/18 06:12:26;;;;;;;;;;;;;;;-144.99;74.13;52313.56;5014594;28;19925;-69
2023/05/18 06:14:56;;;;;;;;;;;;;;;-144.99;73.71;52301.34;5010653;28;20406;-69
2023/05/18 06:17:22;;;;;;;;;;;;;;;-144.99;73.20;52299.31;5007743;28;19964;-68
2023/05/18 06:19:50;;;;;;;;;;;;;;;-144.99;73.66;52309.50;5010340;28;20020;-69
2023/05/18 06:22:17;;;;;;;;;;;;;;;-144.99;73.29;52301.34;5003386;28;19937;-69
2023/05/18 06:24:44;;;;;;;;;;;;;;;-144.99;72.84;52287.06;5012497;28;20371;-69
2023/05/18 06:27:11;;;;;;;;;;;;;;;-144.99;72.24;52309.50;5008614;28;19932;-69
2023/05/18 06:29:37;;;;;;;;;;;;;;;-144.99;71.91;52301.34;5006392;28;19960;-69
2023/05/18 06:32:05;;;;;;;;;;;;;;;-144.99;71.91;52258.53;5012973;28;20009;-69
2023/05/18 06:34:31;;;;;;;;;;;;;;;-144.99;72.05;52268.72;5017053;28;20005;-71
2023/05/18 06:36:59;;;;;;;;;;;;;;;-144.99;71.92;52264.66;5007597;28;19933;-69
2023/05/18 06:39:26;;;;;;;;;;;;;;;-144.99;71.75;52268.72;5016195;28;19933;-73
2023/05/18 06:41:53;;;;;;;;;;;;;;;-144.99;71.55;52248.34;5012394;28;20305;-72
2023/05/18 06:44:19;;;;;;;;;;;;;;;-144.99;71.78;52258.53;5009892;28;19945;-73
2023/05/18 06:46:47;;;;;;;;;;;;;;;-144.99;71.48;52268.72;5017575;28;19929;-69
2023/05/18 06:49:14;;;;;;;;;;;;;;;-144.99;71.19;52293.19;5016400;28;19930;-68
2023/05/18 06:51:42;;;;;;;;;;;;;;;-144.99;71.26;52260.56;5016032;28;19925;-69
2023/05/18 06:54:10;;;;;;;;;;;;;;;-144.99;71.20;52260.56;5010245;28;20135;-69
2023/05/18 06:56:38;;;;;;;;;;;;;;;-144.99;70.60;52278.91;5015479;28;20433;-71
2023/05/18 06:59:04;;;;;;;;;;;;;;;-144.99;70.41;52280.97;5017886;28;20016;-71
2023/05/18 07:01:32;;;;;;;;;;;;;;;-144.99;70.14;52285.03;5015089;28;19929;-72
2023/05/18 07:03:59;;;;;;;;;;;;;;;-144.99;70.18;52285.03;5014075;28;19930;-68
2023/05/18 07:06:25;;;;;;;;;;;;;;;-144.99;70.06;52252.44;5013653;28;19925;-66
2023/05/18 07:08:52;;;;;;;;;;;;;;;-144.99;70.04;52268.72;5008513;28;20367;-66
2023/05/18 07:11:20;;;;;;;;;;;;;;;-144.99;70.08;52232.03;5002532;28;20335;-67
2023/05/18 07:13:47;;;;;;;;;;;;;;;-144.99;70.10;52276.88;5016573;28;19930;-65
2023/05/18 07:16:14;;;;;;;;;;;;;;;-144.99;70.17;52244.28;5018816;28;19969;-66
2023/05/18 07:18:41;;;;;;;;;;;;;;;-144.99;70.10;52268.72;5023973;28;19933;-66
2023/05/18 07:21:08;;;;;;;;;;;;;;;-144.99;70.18;52250.38;5016554;28;20275;-70
2023/05/18 07:23:34;;;;;;;;;;;;;;;-144.99;70.12;52260.56;5021907;28;19925;-69
2023/05/18 07:26:01;;;;;;;;;;;;;;;-144.99;69.32;52262.63;5014738;28;19968;-72
2023/05/18 07:28:29;;;;;;;;;;;;;;;-144.99;69.69;52270.78;5017622;28;19933;-71
2023/05/18 07:30:56;;;;;;;;;;;;;;;-144.99;69.46;52293.19;5027937;28;19925;-72
2023/05/18 07:33:23;;;;;;;;;;;;;;;-144.99;70.12;52272.81;5023545;28;19967;-72
2023/05/18 07:35:49;;;;;;;;;;;;;;;-144.99;69.92;52252.44;5027081;28;19933;-72
2023/05/18 07:38:16;;;;;;;;;;;;;;;-144.99;70.10;52307.47;5026247;28;20418;-71
2023/05/18 07:40:43;;;;;;;;;;;;;;;-144.99;70.34;52289.13;5027237;22;19925;-64
2023/05/18 07:43:09;;;;;;;;;;;;;;;-144.99;69.60;52240.19;5052399;28;20044;-65
2023/05/18 07:45:37;;;;;;;;;;;;;;;-144.99;70.71;52293.19;5053580;28;19972;-66
2023/05/18 07:48:07;;;;;;;;;;;;;;;-144.99;69.61;52264.66;5056300;28;19928;-65
2023/05/18 07:50:34;;;;;;;;;;;;;;;-144.99;69.32;52256.50;5042326;28;19928;-65
2023/05/18 07:53:01;;;;;;;;;;;;;;;-144.99;68.95;52258.53;5038830;28;19972;-66
2023/05/18 07:55:28;;;;;;;;;;;;;;;-144.99;68.74;52266.69;5034948;28;19992;-66
2023/05/18 07:57:55;;;;;;;;;;;;;;;-144.99;69.07;52280.97;5047521;28;19924;-66
2023/05/18 08:00:22;;;;;;;;;;;;;;;-144.99;69.27;52240.19;5049263;28;20392;-66
2023/05/18 08:02:50;;;;;;;;;;;;;;;-144.99;68.94;52213.69;5049286;28;19940;-65
2023/05/18 08:05:17;;;;;;;;;;;;;;;-144.99;68.66;52213.69;5049585;28;19925;-65
2023/05/18 08:07:43;;;;;;;;;;;;;;;-144.99;68.48;52242.22;5044154;28;20021;-66
2023/05/18 08:10:10;;;;;;;;;;;;;;;-144.99;67.93;52203.50;5039451;28;19925;-66
2023/05/18 08:12:37;;;;;;;;;;;;;;;-144.99;67.80;52215.75;5034453;28;20373;-66
2023/05/18 08:15:04;;;;;;;;;;;;;;;-144.99;67.79;52244.28;5046139;28;19932;-65
2023/05/18 08:17:31;;;;;;;;;;;;;;;-144.99;67.56;52185.16;5034032;28;19929;-65
2023/05/18 08:19:59;;;;;;;;;;;;;;;-144.99;67.21;52244.28;5042409;28;19932;-66
2023/05/18 08:22:25;;;;;;;;;;;;;;;-144.99;66.96;52211.66;5037269;28;19931;-67
2023/05/18 08:24:53;;;;;;;;;;;;;;;-144.99;66.36;52174.97;5049912;28;19931;-66
2023/05/18 08:27:20;;;;;;;;;;;;;;;-144.99;66.69;52203.50;5046948;28;20293;-67
2023/05/18 08:29:46;;;;;;;;;;;;;;;-144.99;66.13;52227.97;5059304;28;19925;-66
2023/05/18 08:32:13;;;;;;;;;;;;;;;-144.99;65.29;52187.19;5030687;28;19932;-66
2023/05/18 08:34:40;;;;;;;;;;;;;;;-144.99;65.49;52193.31;5043121;28;20042;-66
2023/05/18 08:37:08;;;;;;;;;;;;;;;-144.99;65.77;52191.28;5042538;28;20072;-67
2023/05/18 08:39:36;;;;;;;;;;;;;;;-144.99;64.85;52170.91;5043898;28;19974;-66
2023/05/18 08:42:03;;;;;;;;;;;;;;;-144.99;64.18;52126.06;5031569;28;19940;-67
2023/05/18 08:44:34;;;;;;;;;;;;;;;-144.99;63.89;52168.84;5029383;28;19932;-68
2023/05/18 08:47:01;;;;;;;;;;;;;;;-144.99;63.16;52148.47;5038641;28;19979;-66
2023/05/18 08:49:29;;;;;;;;;;;;;;;-144.99;63.84;52121.97;5042327;28;19925;-69
2023/05/18 08:51:56;;;;;;;;;;;;;;;-144.99;62.95;52101.59;5038978;28;19951;-69
2023/05/18 08:54:24;;;;;;;;;;;;;;;-144.99;63.23;52138.28;5037171;28;20378;-67
2023/05/18 08:56:52;;;;;;;;;;;;;;;-144.99;63.12;52121.97;5033246;28;19968;-67
2023/05/18 08:59:23;;;;;;;;;;;;;;;-144.99;63.53;52103.66;5041830;28;20001;-68
2023/05/18 09:01:50;;;;;;;;;;;;;;;-144.99;62.97;52134.22;5041955;28;20301;-66
2023/05/18 09:04:18;;;;;;;;;;;;;;;-144.99;61.84;52089.38;5042982;28;19929;-66
2023/05/18 09:06:45;;;;;;;;;;;;;;;-144.99;62.02;52060.84;5035172;28;19936;-65
2023/05/18 09:09:12;;;;;;;;;;;;;;;-144.99;61.47;52077.16;5044018;28;20381;-65
2023/05/18 09:11:41;;;;;;;;;;;;;;;-144.99;61.15;52085.31;5043971;28;19926;-66
2023/05/18 09:14:07;;;;;;;;;;;;;;;-144.99;61.14;52126.06;5031920;28;20397;-67
2023/05/18 09:16:34;;;;;;;;;;;;;;;-144.99;61.70;52109.75;5036826;28;19932;-65
2023/05/18 09:19:01;;;;;;;;;;;;;;;-144.99;62.65;52130.13;5034017;28;20016;-66
2023/05/18 09:21:27;;;;;;;;;;;;;;;-144.99;62.00;52132.19;5037891;28;19929;-66
2023/05/18 09:23:54;;;;;;;;;;;;;;;-144.99;62.06;52119.94;5041093;28;19925;-65
2023/05/18 09:26:21;;;;;;;;;;;;;;;-144.99;61.79;52089.38;5041129;28;20318;-65
2023/05/18 09:28:52;;;;;;;;;;;;;;;-144.99;61.46;52138.28;5040154;28;19932;-65
2023/05/18 09:31:19;;;;;;;;;;;;;;;-144.99;61.32;52130.13;5038821;28;19929;-65
2023/05/18 09:33:47;;;;;;;;;;;;;;;-144.99;61.04;52073.06;5039544;28;19929;-66
2023/05/18 09:36:15;;;;;;;;;;;;;;;-144.99;61.29;52134.22;5039104;28;20214;-66
2023/05/18 09:38:44;;;;;;;;;;;;;;;-144.99;61.49;52142.38;5035608;28;19936;-65
2023/05/18 09:41:11;;;;;;;;;;;;;;;-144.99;61.77;52134.22;5040136;28;19929;-71
2023/05/18 09:43:38;;;;;;;;;;;;;;;-144.99;61.89;52158.66;5043885;28;19929;-70
2023/05/18 09:46:07;;;;;;;;;;;;;;;-144.99;61.27;52134.22;5039575;28;19939;-70
2023/05/18 09:48:35;;;;;;;;;;;;;;;-144.99;61.47;52183.13;5045127;28;19925;-71
2023/05/18 09:51:02;;;;;;;;;;;;;;;-144.99;62.06;52126.06;5052295;28;19933;-70
2023/05/18 09:53:29;;;;;;;;;;;;;;;-144.99;62.17;52126.06;5061389;28;19925;-71
2023/05/18 09:55:55;;;;;;;;;;;;;;;-144.99;61.62;52097.53;5041178;28;19925;-70
2023/05/18 09:58:22;;;;;;;;;;;;;;;-144.99;61.50;52130.13;5037108;28;19924;-71
2023/05/18 10:00:50;;;;;;;;;;;;;;;-144.99;61.77;52136.25;5046778;28;19928;-69
2023/05/18 10:03:20;;;;;;;;;;;;;;;-144.99;61.36;52081.22;5039283;28;19968;-70
2023/05/18 10:05:47;;;;;;;;;;;;;;;-144.99;60.88;52079.19;5033171;28;19933;-70
2023/05/18 10:08:14;;;;;;;;;;;;;;;-144.99;60.55;52081.22;5031030;28;19936;-70
2023/05/18 10:10:43;;;;;;;;;;;;;;;-144.99;59.69;52117.91;5036562;28;19933;-70
2023/05/18 10:13:13;;;;;;;;;;;;;;;-144.99;60.25;52187.19;5040843;28;20028;-70
2023/05/18 10:15:46;;;;;;;;;;;;;;;-144.99;60.25;52101.59;5030536;28;19978;-70
2023/05/18 10:18:13;;;;;;;;;;;;;;;-144.99;60.19;52105.69;5035306;28;19943;-70
2023/05/18 10:20:42;;;;;;;;;;;;;;;-144.99;60.51;52081.22;5035242;28;19939;-70
2023/05/18 10:23:09;;;;;;;;;;;;;;;-144.99;60.59;52187.19;5041334;28;20000;-70
2023/05/18 10:25:37;;;;;;;;;;;;;;;-144.99;60.12;52103.66;5044502;28;19952;-69
2023/05/18 10:28:06;;;;;;;;;;;;;;;-144.99;60.37;52093.44;5045257;28;19936;-70
2023/05/18 10:30:34;;;;;;;;;;;;;;;-144.99;60.53;52150.53;5039257;28;19924;-70
2023/05/18 10:33:02;;;;;;;;;;;;;;;-144.99;60.65;52093.44;5057713;28;19913;-70
2023/05/18 10:35:29;;;;;;;;;;;;;;;-144.99;59.98;52069.00;5074540;28;19920;-71
2023/05/18 10:37:57;;;;;;;;;;;;;;;-144.99;59.46;52040.47;5049511;28;19932;-69
2023/05/18 10:40:24;;;;;;;;;;;;;;;-144.99;59.50;52040.47;5044720;28;20007;-72
2023/05/18 10:42:52;;;;;;;;;;;;;;;-144.99;59.19;52081.22;5034240;28;19925;-71
2023/05/18 10:45:19;;;;;;;;;;;;;;;-144.99;58.61;52020.09;5038201;28;20456;-70
2023/05/18 10:47:52;;;;;;;;;;;;;;;-144.99;58.00;52005.81;5050006;28;20364;-71
2023/05/18 10:50:19;;;;;;;;;;;;;;;-144.99;58.88;52022.13;5038130;28;19925;-71
2023/05/18 10:52:47;;;;;;;;;;;;;;;-144.99;58.48;52036.38;5032040;28;19939;-71
2023/05/18 10:55:15;;;;;;;;;;;;;;;-144.99;58.20;52007.84;5036388;28;19944;-71
2023/05/18 10:57:44;;;;;;;;;;;;;;;-144.99;57.75;52060.84;5039675;28;20324;-71
2023/05/18 11:00:12;;;;;;;;;;;;;;;-144.99;57.79;52016.00;5034672;28;19939;-71
2023/05/18 11:02:41;;;;;;;;;;;;;;;-144.99;57.65;51975.25;5038330;28;20039;-71
2023/05/18 11:05:08;;;;;;;;;;;;;;;-144.99;57.46;52032.31;5019632;28;20362;-71
2023/05/18 11:07:35;;;;;;;;;;;;;;;-144.99;57.72;52018.03;5037004;28;19948;-71
2023/05/18 11:10:03;;;;;;;;;;;;;;;-144.99;57.85;52036.38;5044377;28;19948;-72
2023/05/18 11:12:32;;;;;;;;;;;;;;;-144.99;57.78;51987.47;5039785;28;19925;-73
2023/05/18 11:14:59;;;;;;;;;;;;;;;-144.99;56.16;51991.56;5051407;28;19944;-71
2023/05/18 11:17:29;;;;;;;;;;;;;;;-144.99;56.61;52018.03;5054583;28;19925;-71
2023/05/18 11:20:14;;;;;;;;;;;;;;;-144.99;57.25;52003.78;5041250;28;19932;-72
2023/05/18 11:22:42;;;;;;;;;;;;;;;-144.99;56.86;52024.16;5040502;28;19979;-71
2023/05/18 11:25:09;;;;;;;;;;;;;;;-144.99;56.48;52044.53;5038520;28;19932;-71
2023/05/18 11:27:37;;;;;;;;;;;;;;;-144.99;56.91;52034.34;5040802;28;19925;-72
2023/05/18 11:30:04;;;;;;;;;;;;;;;-144.99;56.67;52060.84;5032905;28;19925;-72
2023/05/18 11:32:32;;;;;;;;;;;;;;;-144.99;57.39;52081.22;5033239;28;19925;-70
2023/05/18 11:34:59;;;;;;;;;;;;;;;-144.99;57.34;52028.22;5043889;28;20386;-71
2023/05/18 11:37:45;;;;;;;;;;;;;;;-144.99;57.13;52066.97;5031584;28;19932;-70
2023/05/18 11:40:12;;;;;;;;;;;;;;;-144.99;56.82;52032.31;5039321;28;19976;-71
2023/05/18 11:42:40;;;;;;;;;;;;;;;-144.99;56.77;52050.66;5037011;28;19948;-72
2023/05/18 11:45:07;;;;;;;;;;;;;;;-144.99;56.67;52032.31;5046263;28;19928;-71
2023/05/18 11:47:35;;;;;;;;;;;;;;;-144.99;56.44;52020.09;5035780;28;20455;-71
2023/05/18 11:50:02;;;;;;;;;;;;;;;-144.99;56.84;52020.09;5042828;28;19959;-72
2023/05/18 11:52:29;;;;;;;;;;;;;;;-144.99;56.61;52064.91;5042655;28;19971;-72
2023/05/18 11:54:56;;;;;;;;;;;;;;;-144.99;56.72;52073.06;5040272;28;19930;-70
2023/05/18 11:57:25;;;;;;;;;;;;;;;-144.99;56.30;52024.16;5046333;28;19924;-72
2023/05/18 11:59:56;;;;;;;;;;;;;;;-144.99;55.84;52020.09;5050328;28;19939;-71
2023/05/18 12:02:25;;;;;;;;;;;;;;;-144.99;56.05;52052.69;5030769;28;19983;-71
2023/05/18 12:04:52;;;;;;;;;;;;;;;-144.99;56.04;52048.63;5044341;28;19936;-71
2023/05/18 12:07:19;;;;;;;;;;;;;;;-144.99;55.84;52007.84;5037949;28;20386;-71
2023/05/18 12:09:47;;;;;;;;;;;;;;;-144.99;56.45;52020.09;5046490;28;19928;-72
2023/05/18 12:12:16;;;;;;;;;;;;;;;-144.99;55.75;51995.63;5039263;28;19929;-70
2023/05/18 12:14:43;;;;;;;;;;;;;;;-144.99;56.32;52052.69;5038534;28;20393;-71
2023/05/18 12:17:15;;;;;;;;;;;;;;;-144.99;56.29;52036.38;5035948;28;20373;-72
2023/05/18 12:19:42;;;;;;;;;;;;;;;-144.99;56.21;52060.84;5037804;28;20043;-72
2023/05/18 12:22:10;;;;;;;;;;;;;;;-144.99;56.09;52052.69;5036570;28;19925;-72
2023/05/18 12:24:36;;;;;;;;;;;;;;;-144.99;55.44;52060.84;5044274;28;19925;-73
2023/05/18 12:27:05;;;;;;;;;;;;;;;-144.99;55.03;51999.69;5035180;28;19929;-71
2023/05/18 12:29:32;;;;;;;;;;;;;;;-144.99;55.78;52044.53;5041350;28;20320;-73